Time;durP1;ratioP1;P1;durP2;ratioP2;P2;SDS_P1;SDS_P2;PMS_P1;PMS_P2;Temp;Humidity;BMP_temperature;BMP_pressure;BME280_temperature;BME280_humidity;BME280_pressure;Samples;Min_cycle;Max_cycle;Signal;HPM_P1;HPM_P2
2021/10/16 00:01:40;;;;;;;29.40;21.85;;;;;;;4.17;73.44;100678.06;1759680;81;20944;-69
2021/10/16 00:04:07;;;;;;;33.53;22.42;;;;;;;4.18;73.47;100677.60;1759850;81;22165;-69
2021/10/16 00:06:35;;;;;;;31.68;21.60;;;;;;;4.19;73.54;100678.83;1759643;81;20976;-70
2021/10/16 00:09:02;;;;;;;32.30;21.52;;;;;;;4.22;73.55;100683.91;1759552;81;20952;-69
2021/10/16 00:11:29;;;;;;;31.25;22.25;;;;;;;4.24;73.56;100688.59;1759480;81;20999;-69
2021/10/16 00:13:55;;;;;;;34.18;24.00;;;;;;;4.24;73.64;100684.67;1759628;81;21027;-68
2021/10/16 00:16:23;;;;;;;30.30;22.40;;;;;;;4.25;73.69;100677.23;1747021;81;22188;-68
2021/10/16 00:18:51;;;;;;;34.53;23.18;;;;;;;4.30;73.83;100679.62;1729307;81;21449;-69
2021/10/16 00:21:18;;;;;;;33.98;23.50;;;;;;;4.34;73.88;100677.69;1729386;82;21000;-69
2021/10/16 00:23:46;;;;;;;31.75;23.32;;;;;;;4.39;73.88;100676.55;1729299;81;21020;-69
2021/10/16 00:26:14;;;;;;;33.80;23.70;;;;;;;4.43;73.94;100674.16;1729332;83;20972;-69
2021/10/16 00:28:40;;;;;;;33.08;23.83;;;;;;;4.46;73.97;100671.42;1729620;82;22824;-69
2021/10/16 00:31:07;;;;;;;33.63;24.00;;;;;;;4.50;74.00;100672.09;1729302;83;20992;-69
2021/10/16 00:33:34;;;;;;;34.50;24.70;;;;;;;4.53;74.00;100664.94;1730612;81;21074;-69
2021/10/16 00:36:01;;;;;;;34.70;24.27;;;;;;;4.57;74.07;100663.87;1729443;82;20980;-68
2021/10/16 00:38:28;;;;;;;35.90;25.23;;;;;;;4.63;74.16;100657.47;1735846;81;21003;-70
2021/10/16 00:40:54;;;;;;;37.28;26.97;;;;;;;4.67;74.21;100656.88;1758495;81;21875;-70
2021/10/16 00:43:20;;;;;;;34.55;25.12;;;;;;;4.69;74.23;100652.41;1759801;81;20936;-70
2021/10/16 00:45:47;;;;;;;37.63;25.75;;;;;;;4.72;74.26;100654.39;1759608;81;20988;-70
2021/10/16 00:48:13;;;;;;;38.40;25.62;;;;;;;4.76;74.31;100645.95;1759869;81;21003;-69
2021/10/16 00:50:39;;;;;;;38.53;26.02;;;;;;;4.78;74.36;100631.01;1742742;81;20951;-70
2021/10/16 00:53:06;;;;;;;33.63;24.65;;;;;;;4.80;74.40;100634.38;1729562;82;22203;-70
2021/10/16 00:55:34;;;;;;;37.13;25.08;;;;;;;4.81;74.42;100632.99;1729357;83;21019;-70
2021/10/16 00:58:00;;;;;;;36.77;25.10;;;;;;;4.83;74.38;100627.70;1729695;83;20947;-69
2021/10/16 01:00:26;;;;;;;31.77;24.43;;;;;;;4.85;74.43;100632.39;1703123;83;21043;-70
2021/10/16 01:02:53;;;;;;;33.73;25.15;;;;;;;4.84;74.49;100627.63;1702992;83;20943;-69
2021/10/16 01:05:20;;;;;;;37.73;25.12;;;;;;;4.86;74.55;100631.47;1729368;83;21900;-69
2021/10/16 01:07:47;;;;;;;35.88;25.60;;;;;;;4.87;74.56;100625.30;1755214;81;20995;-70
2021/10/16 01:10:14;;;;;;;36.33;26.10;;;;;;;4.91;74.60;100618.97;1731862;81;21003;-69
2021/10/16 01:12:41;;;;;;;36.63;25.57;;;;;;;4.93;74.61;100618.45;1759553;81;21420;-68
2021/10/16 01:15:12;;;;;;;35.88;25.97;;;;;;;4.94;74.64;100620.60;1759536;81;20952;-69
2021/10/16 01:17:41;;;;;;;33.90;25.88;;;;;;;4.94;74.65;100612.28;1759902;81;22475;-69
2021/10/16 01:20:18;;;;;;;35.90;25.90;;;;;;;4.95;74.64;100611.36;1759568;81;20979;-70
2021/10/16 01:22:45;;;;;;;37.50;26.30;;;;;;;4.96;74.63;100613.05;1762059;80;20959;-69
2021/10/16 01:25:22;;;;;;;38.30;27.27;;;;;;;4.96;74.66;100611.73;1741275;81;21009;-70
2021/10/16 01:27:49;;;;;;;36.13;26.40;;;;;;;4.97;74.72;100607.34;1735103;82;20955;-70
2021/10/16 01:30:20;;;;;;;38.92;26.90;;;;;;;4.99;74.78;100613.34;1734837;80;22273;-68
2021/10/16 01:32:47;;;;;;;37.42;26.48;;;;;;;5.00;74.76;100610.64;1734735;82;21526;-69
2021/10/16 01:35:14;;;;;;;37.55;27.10;;;;;;;5.01;74.74;100605.78;1734961;82;20947;-69
2021/10/16 01:37:44;;;;;;;38.38;27.25;;;;;;;5.01;74.73;100603.16;1735040;82;20948;-69
2021/10/16 01:40:12;;;;;;;35.03;24.18;;;;;;;5.03;74.75;100603.11;1734926;82;20987;-69
2021/10/16 01:42:43;;;;;;;34.80;23.27;;;;;;;5.04;74.79;100601.72;1736630;81;21866;-69
2021/10/16 01:45:14;;;;;;;31.40;23.50;;;;;;;5.06;74.83;100597.23;1734966;81;20999;-69
2021/10/16 01:47:48;;;;;;;29.42;21.45;;;;;;;5.07;74.85;100598.92;1734994;82;21050;-69
2021/10/16 01:50:18;;;;;;;28.05;19.75;;;;;;;5.10;74.83;100592.20;1704471;82;20996;-69
2021/10/16 01:52:44;;;;;;;29.72;22.02;;;;;;;5.11;74.83;100582.11;1735029;82;21026;-69
2021/10/16 01:55:11;;;;;;;29.32;20.70;;;;;;;5.08;74.88;100587.52;1734995;82;21835;-69
2021/10/16 01:57:38;;;;;;;26.73;20.25;;;;;;;5.07;74.92;100577.98;1735872;81;21483;-70
2021/10/16 02:00:07;;;;;;;26.25;19.62;;;;;;;5.08;74.91;100577.05;1734962;82;21000;-70
2021/10/16 02:02:34;;;;;;;27.77;20.68;;;;;;;5.10;74.96;100573.03;1734945;82;21091;-70
2021/10/16 02:05:08;;;;;;;25.85;20.02;;;;;;;5.10;75.00;100573.88;1727628;82;21004;-70
2021/10/16 02:07:37;;;;;;;26.77;20.52;;;;;;;5.11;75.00;100584.73;1735015;81;21000;-69
2021/10/16 02:10:04;;;;;;;26.15;19.55;;;;;;;5.12;75.03;100584.30;1704061;82;20944;-69
2021/10/16 02:12:31;;;;;;;28.17;19.42;;;;;;;5.14;75.04;100585.89;1734925;82;21188;-70
2021/10/16 02:14:58;;;;;;;27.70;19.00;;;;;;;5.14;75.07;100584.59;1743374;81;20947;-70
2021/10/16 02:17:26;;;;;;;29.42;20.20;;;;;;;5.16;75.11;100591.05;1765465;81;21010;-70
2021/10/16 02:19:53;;;;;;;25.05;18.75;;;;;;;5.17;75.13;100592.73;1765364;80;22243;-69
2021/10/16 02:22:20;;;;;;;23.02;18.05;;;;;;;5.17;75.15;100588.34;1764550;80;21376;-69
2021/10/16 02:24:47;;;;;;;25.92;20.25;;;;;;;5.20;75.23;100586.02;1759638;81;20960;-70
2021/10/16 02:27:14;;;;;;;25.70;19.45;;;;;;;5.21;75.27;100582.93;1759596;81;21047;-70
2021/10/16 02:29:40;;;;;;;24.85;18.70;;;;;;;5.22;75.22;100592.50;1759689;81;20956;-69
2021/10/16 02:32:07;;;;;;;27.05;18.92;;;;;;;5.23;75.20;100587.64;1749688;81;22902;-70
2021/10/16 02:34:36;;;;;;;26.12;19.50;;;;;;;5.25;75.21;100593.64;1729348;83;20991;-69
2021/10/16 02:37:05;;;;;;;25.57;19.27;;;;;;;5.25;75.18;100589.25;1729508;82;21000;-69
2021/10/16 02:39:32;;;;;;;26.12;19.92;;;;;;;5.25;75.13;100594.95;1729340;83;21403;-70
2021/10/16 02:41:59;;;;;;;25.62;19.48;;;;;;;5.22;75.09;100579.41;1729870;83;21358;-69
2021/10/16 02:44:27;;;;;;;25.52;19.40;;;;;;;5.22;75.12;100584.65;1756548;81;21785;-69
2021/10/16 02:46:54;;;;;;;24.60;18.98;;;;;;;5.20;75.13;100583.39;1732200;81;21450;-69
2021/10/16 02:49:20;;;;;;;26.27;19.75;;;;;;;5.20;75.16;100574.70;1752572;81;20936;-70
2021/10/16 02:51:47;;;;;;;28.25;19.52;;;;;;;5.22;75.13;100578.95;1744698;81;20988;-69
2021/10/16 02:54:14;;;;;;;24.57;18.70;;;;;;;5.23;75.10;100575.86;1759685;81;21082;-69
2021/10/16 02:56:42;;;;;;;27.25;20.02;;;;;;;5.24;75.09;100581.01;1760043;81;22786;-69
2021/10/16 02:59:10;;;;;;;25.80;19.62;;;;;;;5.25;75.10;100576.62;1758548;81;20957;-69
2021/10/16 03:01:39;;;;;;;24.18;18.67;;;;;;;5.24;75.08;100580.17;1758573;80;20963;-69
2021/10/16 03:04:06;;;;;;;27.77;19.82;;;;;;;5.24;75.08;100586.25;1759705;81;20991;-69
2021/10/16 03:06:35;;;;;;;29.32;20.25;;;;;;;5.24;75.04;100587.55;1756046;81;20979;-69
2021/10/16 03:09:02;;;;;;;28.05;20.65;;;;;;;5.24;74.99;100587.55;1759698;81;21821;-69
2021/10/16 03:11:30;;;;;;;28.35;20.15;;;;;;;5.25;74.94;100573.53;1732162;81;20948;-69
2021/10/16 03:14:00;;;;;;;28.87;20.77;;;;;;;5.26;74.97;100575.69;1759574;80;20972;-69
2021/10/16 03:16:27;;;;;;;26.17;20.23;;;;;;;5.27;74.99;100583.92;1759571;80;21008;-69
2021/10/16 03:18:56;;;;;;;27.90;19.90;;;;;;;5.27;74.93;100587.38;1732321;81;21003;-69
2021/10/16 03:21:23;;;;;;;27.93;20.82;;;;;;;5.28;74.87;100587.76;1759540;81;21810;-69
2021/10/16 03:23:49;;;;;;;28.30;20.57;;;;;;;5.27;74.84;100574.75;1740617;81;20928;-69
2021/10/16 03:26:16;;;;;;;25.77;20.35;;;;;;;5.28;74.84;100579.06;1729465;83;21056;-69
2021/10/16 03:28:43;;;;;;;25.75;19.82;;;;;;;5.28;74.83;100572.05;1729400;83;20972;-69
2021/10/16 03:31:11;;;;;;;27.37;19.82;;;;;;;5.28;74.85;100574.66;1729575;83;21408;-70
2021/10/16 03:33:38;;;;;;;26.35;20.15;;;;;;;5.28;74.89;100579.91;1729345;83;21802;-69
2021/10/16 03:36:05;;;;;;;25.85;20.25;;;;;;;5.29;74.90;100577.66;1729418;83;21430;-69
2021/10/16 03:38:32;;;;;;;28.17;20.70;;;;;;;5.30;74.92;100583.28;1729417;82;20940;-69
2021/10/16 03:40:59;;;;;;;28.52;21.40;;;;;;;5.31;74.97;100582.84;1730333;81;20968;-69
2021/10/16 03:43:25;;;;;;;25.92;19.92;;;;;;;5.33;75.05;100580.98;1743484;81;20996;-69
2021/10/16 03:45:52;;;;;;;27.87;20.75;;;;;;;5.36;75.09;100582.11;1731969;81;22205;-69
2021/10/16 03:48:19;;;;;;;26.10;19.73;;;;;;;5.38;75.09;100582.87;1759447;81;20945;-69
2021/10/16 03:50:46;;;;;;;27.82;19.95;;;;;;;5.39;75.13;100580.16;1759651;81;21002;-69
2021/10/16 03:53:13;;;;;;;32.53;20.70;;;;;;;5.40;75.17;100581.00;1731968;81;21000;-69
2021/10/16 03:55:40;;;;;;;25.97;20.15;;;;;;;5.41;75.21;100580.95;1753214;81;20948;-69
2021/10/16 03:58:07;;;;;;;28.35;19.73;;;;;;;5.42;75.27;100580.48;1736856;81;21831;-69
2021/10/16 04:00:36;;;;;;;24.30;18.95;;;;;;;5.43;75.34;100577.77;1729305;83;21054;-69
2021/10/16 04:03:04;;;;;;;27.65;20.77;;;;;;;5.46;75.37;100576.75;1729714;83;21055;-70
2021/10/16 04:05:33;;;;;;;28.57;21.07;;;;;;;5.47;75.34;100574.51;1703497;83;21008;-69
2021/10/16 04:08:00;;;;;;;25.62;20.62;;;;;;;5.51;75.35;100580.45;1740248;81;21374;-70
2021/10/16 04:10:27;;;;;;;28.40;20.65;;;;;;;5.51;75.37;100577.36;1732060;81;22233;-70
2021/10/16 04:12:53;;;;;;;27.30;20.30;;;;;;;5.53;75.40;100574.65;1759506;81;20928;-70
2021/10/16 04:15:20;;;;;;;25.60;19.90;;;;;;;5.53;75.42;100570.72;1758419;81;20995;-69
2021/10/16 04:17:49;;;;;;;27.98;21.07;;;;;;;5.53;75.42;100559.77;1759637;81;21398;-69
2021/10/16 04:20:18;;;;;;;27.22;20.45;;;;;;;5.56;75.42;100571.38;1759569;81;20999;-70
2021/10/16 04:22:50;;;;;;;28.75;21.40;;;;;;;5.58;75.39;100573.91;1759738;80;21866;-69
2021/10/16 04:25:17;;;;;;;30.30;20.50;;;;;;;5.59;75.37;100575.13;1765220;81;21039;-69
2021/10/16 04:27:43;;;;;;;28.62;20.17;;;;;;;5.60;75.31;100578.16;1765144;81;20956;-70
2021/10/16 04:30:18;;;;;;;30.92;21.20;;;;;;;5.62;75.31;100582.00;1763053;81;21046;-70
2021/10/16 04:32:46;;;;;;;28.32;20.75;;;;;;;5.64;75.28;100578.83;1735341;81;21532;-69
2021/10/16 04:35:13;;;;;;;26.90;20.48;;;;;;;5.65;75.28;100576.11;1734826;82;21833;-69
2021/10/16 04:37:39;;;;;;;31.80;21.12;;;;;;;5.67;75.37;100575.55;1734848;82;20936;-69
2021/10/16 04:40:12;;;;;;;30.57;21.60;;;;;;;5.69;75.44;100578.96;1734798;82;20991;-68
2021/10/16 04:42:36;;;;;;;29.27;21.35;;;;;;;5.72;75.51;100584.48;1737976;81;21546;-69
2021/10/16 04:45:03;;;;;;;29.95;21.97;;;;;;;5.75;75.49;100575.97;1765256;81;20959;-69
2021/10/16 04:47:31;;;;;;;31.00;22.80;;;;;;;5.79;75.50;100580.59;1762351;81;22263;-69
2021/10/16 04:49:59;;;;;;;31.42;24.12;;;;;;;5.82;75.51;100574.33;1734805;82;20968;-70
2021/10/16 04:52:26;;;;;;;31.40;23.40;;;;;;;5.83;75.40;100570.78;1734849;82;21047;-70
2021/10/16 04:54:55;;;;;;;35.40;27.45;;;;;;;5.82;75.32;100563.84;1734751;80;21107;-70
2021/10/16 04:57:22;;;;;;;39.67;28.12;;;;;;;5.83;75.35;100569.47;1704014;82;20952;-70
2021/10/16 04:59:49;;;;;;;41.05;29.42;;;;;;;5.87;75.32;100565.73;1735240;82;22176;-69
2021/10/16 05:02:16;;;;;;;42.70;30.50;;;;;;;5.89;75.26;100566.04;1741067;81;21039;-69
2021/10/16 05:04:42;;;;;;;44.88;31.40;;;;;;;5.91;75.19;100567.29;1757256;81;21050;-69
2021/10/16 05:07:09;;;;;;;48.78;32.25;;;;;;;5.94;75.14;100568.42;1741795;81;21426;-69
2021/10/16 05:09:38;;;;;;;45.83;31.85;;;;;;;5.97;75.11;100562.98;1733328;81;21102;-70
2021/10/16 05:12:06;;;;;;;43.28;30.80;;;;;;;6.00;75.02;100567.61;1765271;81;21840;-69
2021/10/16 05:14:35;;;;;;;41.70;29.18;;;;;;;6.05;74.96;100567.33;1765217;81;21487;-70
2021/10/16 05:17:03;;;;;;;43.33;30.08;;;;;;;6.07;75.01;100568.08;1765397;81;20956;-69
2021/10/16 05:19:31;;;;;;;41.58;29.65;;;;;;;6.12;74.98;100573.08;1765367;81;20952;-69
2021/10/16 05:21:57;;;;;;;40.73;28.95;;;;;;;6.16;74.97;100566.23;1757081;81;21433;-70
2021/10/16 05:24:24;;;;;;;43.38;29.85;;;;;;;6.19;74.89;100561.31;1731629;81;21790;-69
2021/10/16 05:26:52;;;;;;;41.70;29.18;;;;;;;6.22;74.74;100555.87;1729575;81;20956;-69
2021/10/16 05:29:18;;;;;;;43.55;29.32;;;;;;;6.28;74.71;100552.91;1729596;83;21000;-69
2021/10/16 05:31:45;;;;;;;40.75;28.75;;;;;;;6.31;74.66;100551.41;1729767;83;21039;-69
2021/10/16 05:34:13;;;;;;;44.83;28.47;;;;;;;6.34;74.55;100555.14;1729369;83;20946;-69
2021/10/16 05:36:40;;;;;;;45.83;29.20;;;;;;;6.37;74.42;100551.48;1702929;83;21844;-70
2021/10/16 05:39:06;;;;;;;48.87;29.75;;;;;;;6.38;74.33;100551.89;1730517;81;20992;-69
2021/10/16 05:41:35;;;;;;;43.13;29.23;;;;;;;6.42;74.40;100561.26;1729587;83;20991;-69
2021/10/16 05:44:02;;;;;;;47.33;29.23;;;;;;;6.43;74.39;100558.54;1732179;81;20968;-69
2021/10/16 05:46:32;;;;;;;40.98;29.00;;;;;;;6.46;74.45;100554.88;1760052;81;21003;-69
2021/10/16 05:48:57;;;;;;;39.58;28.47;;;;;;;6.49;74.46;100556.88;1759428;81;21720;-70
2021/10/16 05:51:24;;;;;;;43.83;29.32;;;;;;;6.53;74.46;100563.61;1732089;81;20916;-69
2021/10/16 05:53:51;;;;;;;42.00;28.65;;;;;;;6.60;74.50;100569.35;1759606;81;21013;-69
2021/10/16 05:56:19;;;;;;;41.70;27.42;;;;;;;6.65;74.49;100567.75;1746914;81;20952;-69
2021/10/16 05:58:45;;;;;;;39.38;27.22;;;;;;;6.71;74.40;100565.61;1702864;83;21019;-69
2021/10/16 06:01:12;;;;;;;39.18;26.40;;;;;;;6.77;74.28;100567.03;1729816;83;21804;-70
2021/10/16 06:03:41;;;;;;;36.00;25.88;;;;;;;6.82;74.22;100567.11;1728765;81;21000;-70
2021/10/16 06:06:07;;;;;;;32.48;24.70;;;;;;;6.89;74.25;100565.81;1729814;83;21447;-69
2021/10/16 06:08:35;;;;;;;36.90;25.35;;;;;;;6.97;74.05;100572.38;1748381;80;21491;-69
2021/10/16 06:11:04;;;;;;;32.83;24.20;;;;;;;7.00;73.89;100565.63;1729698;82;20984;-69
2021/10/16 06:13:32;;;;;;;31.62;23.20;;;;;;;7.04;73.82;100560.54;1744508;81;21784;-70
2021/10/16 06:15:58;;;;;;;33.95;23.73;;;;;;;7.09;73.72;100554.08;1759800;81;21459;-70
2021/10/16 06:18:26;;;;;;;31.37;21.82;;;;;;;7.13;73.62;100556.88;1759689;81;21060;-70
2021/10/16 06:20:52;;;;;;;33.40;23.35;;;;;;;7.21;73.51;100564.76;1760029;81;20932;-69
2021/10/16 06:23:19;;;;;;;34.58;23.87;;;;;;;7.25;73.42;100568.90;1760691;80;21460;-70
2021/10/16 06:25:46;;;;;;;31.35;23.92;;;;;;;7.28;73.34;100565.59;1790253;80;22454;-69
2021/10/16 06:28:14;;;;;;;31.77;22.75;;;;;;;7.33;73.12;100567.45;1789957;80;21127;-69
2021/10/16 06:30:42;;;;;;;32.13;23.18;;;;;;;7.36;72.96;100565.13;1772138;80;21016;-69
2021/10/16 06:33:08;;;;;;;30.05;22.25;;;;;;;7.38;72.75;100558.83;1758974;81;20973;-70
2021/10/16 06:35:41;;;;;;;30.85;22.25;;;;;;;7.42;72.65;100559.46;1759181;81;21087;-68
2021/10/16 06:38:12;;;;;;;32.20;23.35;;;;;;;7.45;72.50;100562.76;1757689;81;21794;-69
2021/10/16 06:40:39;;;;;;;36.13;25.68;;;;;;;7.49;72.31;100566.50;1758681;81;20958;-69
2021/10/16 06:43:07;;;;;;;41.73;26.90;;;;;;;7.50;72.29;100563.77;1755951;81;21056;-70
2021/10/16 06:45:39;;;;;;;48.45;31.40;;;;;;;7.53;72.42;100567.98;1755236;81;21573;-70
2021/10/16 06:48:07;;;;;;;73.52;42.70;;;;;;;7.59;72.55;100574.17;1765500;80;21012;-70
2021/10/16 06:50:38;;;;;;;74.10;42.35;;;;;;;7.62;72.49;100563.45;1756340;81;21468;-69
2021/10/16 06:53:05;;;;;;;78.57;45.17;;;;;;;7.64;72.39;100564.22;1758739;81;21071;-69
2021/10/16 06:55:32;;;;;;;73.57;43.75;;;;;;;7.65;72.31;100565.42;1759020;81;20941;-70
2021/10/16 06:57:58;;;;;;;75.62;43.25;;;;;;;7.67;72.34;100560.91;1758827;81;21032;-69
2021/10/16 07:00:25;;;;;;;77.05;44.13;;;;;;;7.69;72.34;100558.17;1758826;81;21526;-69
2021/10/16 07:02:52;;;;;;;69.47;40.78;;;;;;;7.73;72.44;100562.31;1706741;81;21820;-69
2021/10/16 07:05:18;;;;;;;63.58;36.98;;;;;;;7.77;72.44;100557.69;1760105;80;21515;-68
2021/10/16 07:07:45;;;;;;;54.38;34.08;;;;;;;7.78;72.39;100560.21;1746098;80;21024;-68
2021/10/16 07:10:11;;;;;;;51.90;31.93;;;;;;;7.77;72.40;100562.47;1790208;79;20961;-70
2021/10/16 07:12:38;;;;;;;48.25;29.80;;;;;;;7.79;72.42;100568.47;1789293;79;21036;-70
2021/10/16 07:15:06;;;;;;;48.38;30.50;;;;;;;7.82;72.46;100568.77;1777689;79;21831;-70
2021/10/16 07:17:34;;;;;;;50.45;31.33;;;;;;;7.83;72.50;100559.45;1730980;81;20972;-70
2021/10/16 07:20:05;;;;;;;41.95;27.40;;;;;;;7.86;72.61;100561.88;1776884;78;20979;-70
2021/10/16 07:22:32;;;;;;;40.43;26.02;;;;;;;7.87;72.73;100560.94;1789028;80;20961;-70
2021/10/16 07:24:59;;;;;;;37.83;25.32;;;;;;;7.89;72.80;100556.41;1789859;78;21491;-69
2021/10/16 07:27:26;;;;;;;36.17;23.92;;;;;;;7.91;72.72;100560.25;1789964;80;22238;-70
2021/10/16 07:29:52;;;;;;;39.13;24.90;;;;;;;7.91;72.77;100551.92;1789973;79;20929;-70
2021/10/16 07:32:19;;;;;;;37.93;25.02;;;;;;;7.91;72.80;100553.23;1790030;80;20985;-69
2021/10/16 07:34:45;;;;;;;35.58;25.43;;;;;;;7.96;72.87;100556.86;1789909;80;21028;-68
2021/10/16 07:37:12;;;;;;;35.20;26.07;;;;;;;7.98;72.87;100553.66;1789941;80;20949;-69
2021/10/16 07:39:39;;;;;;;34.53;25.85;;;;;;;8.02;73.03;100548.11;1788882;80;21812;-69
2021/10/16 07:42:07;;;;;;;37.30;26.00;;;;;;;8.07;73.13;100547.78;1789899;79;21005;-68
2021/10/16 07:44:35;;;;;;;35.50;25.40;;;;;;;8.09;73.07;100547.20;1790016;79;21724;-69
2021/10/16 07:47:01;;;;;;;39.48;25.88;;;;;;;8.11;73.10;100548.45;1789955;80;20952;-70
2021/10/16 07:49:27;;;;;;;36.50;26.42;;;;;;;8.15;73.17;100546.81;1789992;79;20977;-70
2021/10/16 07:51:54;;;;;;;32.38;24.52;;;;;;;8.19;73.20;100546.13;1789929;80;21787;-69
2021/10/16 07:54:21;;;;;;;38.45;25.12;;;;;;;8.22;73.18;100541.99;1789605;79;21040;-70
2021/10/16 07:56:48;;;;;;;33.92;25.25;;;;;;;8.25;73.15;100535.20;1758777;81;21455;-69
2021/10/16 07:59:14;;;;;;;34.98;23.73;;;;;;;8.27;73.13;100538.56;1758738;81;21375;-70
2021/10/16 08:01:41;;;;;;;33.18;24.05;;;;;;;8.31;73.17;100537.43;1758738;81;20960;-69
2021/10/16 08:04:07;;;;;;;31.73;24.52;;;;;;;8.36;73.19;100536.66;1759028;81;22754;-70
2021/10/16 08:06:34;;;;;;;36.00;24.52;;;;;;;8.41;73.21;100535.89;1758711;81;21394;-70
2021/10/16 08:09:02;;;;;;;37.78;24.07;;;;;;;8.46;73.09;100530.30;1759961;79;21422;-70
2021/10/16 08:11:45;;;;;;;30.70;21.30;;;;;;;8.49;72.97;100530.08;1732878;81;21081;-68
2021/10/16 08:14:14;;;;;;;30.40;22.98;;;;;;;8.53;72.90;100528.94;1767737;81;21411;-70
2021/10/16 08:16:41;;;;;;;32.10;23.22;;;;;;;8.55;72.72;100532.30;1789942;80;22331;-70
2021/10/16 08:19:07;;;;;;;33.33;23.02;;;;;;;8.58;72.73;100530.30;1787820;80;21000;-70
2021/10/16 08:21:35;;;;;;;31.05;23.05;;;;;;;8.62;72.54;100534.89;1772481;79;21028;-69
2021/10/16 08:24:03;;;;;;;35.20;23.18;;;;;;;8.66;72.47;100538.15;1789791;80;20961;-70
2021/10/16 08:26:30;;;;;;;33.92;23.55;;;;;;;8.70;72.21;100537.01;1789992;79;20949;-70
2021/10/16 08:28:56;;;;;;;32.10;22.40;;;;;;;8.74;72.08;100539.31;1781733;80;22166;-70
2021/10/16 08:31:22;;;;;;;35.38;24.45;;;;;;;8.78;71.94;100532.91;1758633;81;21001;-69
2021/10/16 08:33:49;;;;;;;33.58;24.30;;;;;;;8.82;71.77;100538.31;1758750;81;21091;-69
2021/10/16 08:36:15;;;;;;;37.70;24.98;;;;;;;8.86;71.64;100540.24;1758741;81;21075;-70
2021/10/16 08:38:42;;;;;;;38.60;25.97;;;;;;;8.89;71.62;100540.05;1758797;81;21004;-69
2021/10/16 08:41:10;;;;;;;35.83;25.43;;;;;;;8.96;71.67;100536.49;1758727;81;22165;-69
2021/10/16 08:43:37;;;;;;;37.30;26.42;;;;;;;9.02;71.63;100541.34;1758651;81;21428;-70
2021/10/16 08:46:03;;;;;;;37.48;25.52;;;;;;;9.09;71.51;100540.81;1764465;80;21557;-71
2021/10/16 08:48:30;;;;;;;41.88;25.20;;;;;;;9.13;71.35;100539.63;1790017;79;20976;-69
2021/10/16 08:50:58;;;;;;;38.80;25.12;;;;;;;9.17;71.26;100546.86;1790206;79;21043;-69
2021/10/16 08:53:25;;;;;;;36.83;24.35;;;;;;;9.22;71.13;100547.36;1790190;79;22451;-70
2021/10/16 08:55:52;;;;;;;35.60;23.57;;;;;;;9.28;70.96;100544.30;1790192;79;20945;-70
2021/10/16 08:58:19;;;;;;;34.27;23.42;;;;;;;9.32;70.77;100548.39;1790127;78;20993;-70
2021/10/16 09:00:52;;;;;;;31.42;22.22;;;;;;;9.38;70.67;100544.48;1790131;79;21499;-71
2021/10/16 09:03:27;;;;;;;37.73;24.67;;;;;;;9.45;70.54;100541.27;1789190;80;21040;-70
2021/10/16 09:06:06;;;;;;;38.10;23.83;;;;;;;9.50;70.17;100542.28;1790472;79;21813;-70
2021/10/16 09:08:43;;;;;;;34.00;22.30;;;;;;;9.55;69.83;100550.69;1790095;80;21416;-71
2021/10/16 09:11:17;;;;;;;31.23;22.35;;;;;;;9.57;69.51;100551.92;1778774;80;21044;-69
2021/10/16 09:13:47;;;;;;;31.90;23.50;;;;;;;9.60;69.30;100553.84;1731562;81;21060;-70
2021/10/16 09:16:31;;;;;;;32.50;23.18;;;;;;;9.62;69.08;100552.41;1759147;81;21520;-70
2021/10/16 09:19:10;;;;;;;32.90;22.80;;;;;;;9.65;69.06;100549.09;1764281;80;21842;-71
2021/10/16 09:21:54;;;;;;;30.20;21.52;;;;;;;9.71;69.06;100549.95;1760195;79;21479;-69
2021/10/16 09:24:27;;;;;;;32.42;23.73;;;;;;;9.75;68.99;100551.42;1758091;81;26542;-69
2021/10/16 09:27:06;;;;;;;31.07;23.47;;;;;;;9.79;68.90;100549.39;1754194;81;21380;-70
2021/10/16 09:29:46;;;;;;;34.23;23.67;;;;;;;9.82;68.79;100554.91;1734998;82;21407;-70
2021/10/16 09:32:19;;;;;;;30.40;22.80;;;;;;;9.88;68.66;100550.52;1735143;82;21846;-70
2021/10/16 09:34:49;;;;;;;34.67;22.17;;;;;;;9.95;68.65;100551.28;1704449;82;21054;-69
2021/10/16 09:37:17;;;;;;;37.28;23.05;;;;;;;10.01;68.26;100544.69;1746632;81;21059;-70
2021/10/16 09:39:55;;;;;;;33.28;23.22;;;;;;;10.03;68.22;100541.45;1733460;81;20943;-71
2021/10/16 09:42:37;;;;;;;32.28;24.00;;;;;;;10.10;68.14;100542.68;1765298;81;20955;-71
2021/10/16 09:45:06;;;;;;;51.35;36.15;;;;;;;10.17;67.94;100547.88;1765643;81;22232;-70
2021/10/16 09:47:33;;;;;;;36.50;27.00;;;;;;;10.24;67.87;100537.73;1765276;81;20967;-69
2021/10/16 09:50:11;;;;;;;42.08;29.32;;;;;;;10.30;67.80;100535.94;1765311;79;21000;-70
2021/10/16 09:52:41;;;;;;;38.42;26.70;;;;;;;10.37;67.77;100533.68;1765156;81;21040;-71
2021/10/16 09:55:13;;;;;;;35.92;25.57;;;;;;;10.44;67.47;100537.06;1742687;81;21034;-69
2021/10/16 09:57:44;;;;;;;35.88;24.47;;;;;;;10.52;67.25;100532.53;1734986;82;21838;-70
2021/10/16 10:00:12;;;;;;;31.07;22.67;;;;;;;10.57;67.13;100536.48;1735181;82;20995;-69
2021/10/16 10:02:40;;;;;;;32.40;23.07;;;;;;;10.70;67.37;100530.23;1735002;82;20987;-70
2021/10/16 10:05:08;;;;;;;34.90;23.00;;;;;;;10.87;67.68;100526.66;1734935;82;21437;-70
2021/10/16 10:07:36;;;;;;;28.35;20.72;;;;;;;11.05;67.46;100525.69;1735336;82;21518;-72
2021/10/16 10:10:04;;;;;;;26.68;20.43;;;;;;;11.20;66.89;100519.69;1735042;82;21821;-71
2021/10/16 10:12:33;;;;;;;33.08;23.25;;;;;;;11.30;66.13;100517.15;1736386;81;20992;-71
2021/10/16 10:15:01;;;;;;;30.85;21.65;;;;;;;11.37;65.68;100511.22;1735007;82;21395;-70
2021/10/16 10:17:31;;;;;;;32.28;23.00;;;;;;;11.47;65.23;100508.19;1735021;82;21023;-70
2021/10/16 10:20:09;;;;;;;29.00;21.62;;;;;;;11.57;65.00;100503.47;1752894;81;21470;-70
2021/10/16 10:22:37;;;;;;;30.23;21.52;;;;;;;11.70;64.83;100497.56;1765411;81;22495;-70
2021/10/16 10:25:14;;;;;;;32.55;23.95;;;;;;;11.77;64.36;100490.77;1763939;80;21470;-70
2021/10/16 10:27:44;;;;;;;35.58;26.07;;;;;;;11.84;63.83;100496.44;1754989;81;21023;-71
2021/10/16 10:30:39;;;;;;;31.48;23.15;;;;;;;11.86;63.49;100491.85;1729445;83;21009;-71
2021/10/16 10:33:22;;;;;;;34.38;22.93;;;;;;;11.88;63.24;100490.78;1746667;81;21039;-70
2021/10/16 10:36:22;;;;;;;35.68;24.25;;;;;;;11.91;63.15;100475.96;1729624;83;20948;-69
2021/10/16 10:38:48;;;;;;;32.55;23.65;;;;;;;11.99;63.30;100474.00;1729623;83;21043;-70
2021/10/16 10:41:30;;;;;;;33.13;23.00;;;;;;;12.03;62.88;100465.66;1729568;83;21046;-70
2021/10/16 10:43:57;;;;;;;31.93;23.47;;;;;;;12.07;62.79;100460.97;1729455;83;21490;-70
2021/10/16 10:46:28;;;;;;;31.10;23.87;;;;;;;12.09;62.59;100455.54;1755588;81;21514;-70
2021/10/16 10:49:07;;;;;;;31.73;24.30;;;;;;;12.18;62.86;100448.98;1759579;81;21840;-71
2021/10/16 10:51:39;;;;;;;33.40;24.82;;;;;;;12.23;62.68;100448.58;1759938;81;20928;-70
2021/10/16 10:54:16;;;;;;;31.30;23.75;;;;;;;12.30;62.62;100443.95;1759506;81;21439;-70
2021/10/16 10:56:47;;;;;;;32.05;24.50;;;;;;;12.40;62.73;100444.49;1759693;81;21250;-70
2021/10/16 10:59:19;;;;;;;33.30;24.60;;;;;;;12.47;62.56;100445.17;1759954;81;21423;-71
2021/10/16 11:01:52;;;;;;;46.37;30.77;;;;;;;12.55;62.67;100450.64;1753681;81;21836;-71
2021/10/16 11:04:39;;;;;;;42.33;29.82;;;;;;;12.60;62.47;100447.59;1729455;83;21004;-70
2021/10/16 11:07:14;;;;;;;47.50;30.52;;;;;;;12.58;62.41;100445.56;1729719;83;20995;-70
2021/10/16 11:09:41;;;;;;;49.60;32.42;;;;;;;12.58;62.52;100449.53;1729217;83;20992;-72
2021/10/16 11:12:09;;;;;;;49.95;32.63;;;;;;;12.59;62.61;100445.91;1752953;81;21431;-71
2021/10/16 11:14:38;;;;;;;50.67;32.63;;;;;;;12.57;62.53;100442.08;1759668;81;22834;-69
2021/10/16 11:17:15;;;;;;;47.62;32.67;;;;;;;12.54;62.18;100448.10;1759811;81;20940;-70
2021/10/16 11:19:55;;;;;;;49.23;32.88;;;;;;;12.49;62.28;100445.03;1742125;81;21004;-70
2021/10/16 11:22:26;;;;;;;47.38;31.25;;;;;;;12.39;62.17;100442.33;1729617;82;21426;-71
2021/10/16 11:25:02;;;;;;;45.52;31.62;;;;;;;12.31;62.15;100441.66;1727010;81;21359;-70